Terminal Aerodrome Forecast
Issued by NWS

Home | Current Version | Previous Version | Text Only | Print | Product List | Glossary On
Versions: 1 2 3 4 5 6 7 8 9 10 11 12 13 14 15 16
000
FTUS46 KHNX 181737
TAFMCE
TAF
KMCE 181737Z 1818/1918 14004KT 1SM -RA BR SCT050 BKN100
     FM182000 14012G18KT 3SM -RA BR BKN050 OVC100
      TEMPO 1901/1905 14021G31KT 2SM SHRA BR BKN030 OVC050
     FM190500 13015G23KT 3SM -SHRA BR SCT015 OVC030=

USA.gov is the U.S. government's official web portal to all federal, state and local government web resources and services.